Time;durP1;ratioP1;P1;durP2;ratioP2;P2;SDS_P1;SDS_P2;PMS_P1;PMS_P2;Temp;Humidity;BMP_temperature;BMP_pressure;BME280_temperature;BME280_humidity;BME280_pressure;Samples;Min_cycle;Max_cycle;Signal;HPM_P1;HPM_P2
2021/09/27 00:00:46;;;;;;;72.70;16.23;;;14.40;99.90;;;;;;5027906;28;20512;-58
2021/09/27 00:03:15;;;;;;;38.90;17.57;;;14.40;99.90;;;;;;5024999;28;20449;-58
2021/09/27 00:05:44;;;;;;;34.27;15.97;;;14.40;99.90;;;;;;5029245;28;20752;-60
2021/09/27 00:08:09;;;;;;;51.63;16.13;;;14.40;99.90;;;;;;5025038;28;20454;-57
2021/09/27 00:10:43;;;;;;;39.83;16.90;;;14.40;99.90;;;;;;5024392;28;20790;-59
2021/09/27 00:13:16;;;;;;;35.63;16.60;;;14.40;99.90;;;;;;5028863;28;20495;-59
2021/09/27 00:15:45;;;;;;;30.07;14.97;;;14.40;99.90;;;;;;5029375;28;20438;-60
2021/09/27 00:18:13;;;;;;;41.10;15.57;;;14.40;99.90;;;;;;5029287;28;20591;-59
2021/09/27 00:20:41;;;;;;;40.50;16.20;;;14.30;99.90;;;;;;5006367;28;20434;-59
2021/09/27 00:23:08;;;;;;;36.60;16.10;;;14.30;99.90;;;;;;5029093;28;20452;-59
2021/09/27 00:25:37;;;;;;;54.27;17.10;;;14.30;99.90;;;;;;5027384;28;20465;-59
2021/09/27 00:28:04;;;;;;;42.20;16.20;;;14.30;99.90;;;;;;5027940;28;20765;-58
2021/09/27 00:30:30;;;;;;;54.03;15.00;;;14.30;99.90;;;;;;5024211;28;20418;-59
2021/09/27 00:32:55;;;;;;;43.07;15.87;;;14.30;99.90;;;;;;5029099;28;20484;-59
2021/09/27 00:35:25;;;;;;;34.23;15.70;;;14.30;99.90;;;;;;5029408;28;20456;-59
2021/09/27 00:37:54;;;;;;;30.20;15.00;;;14.30;99.90;;;;;;5020527;28;20179;-59
2021/09/27 00:40:36;;;;;;;31.83;16.47;;;14.30;99.90;;;;;;5028706;28;20425;-59
2021/09/27 00:43:02;;;;;;;36.80;16.17;;;14.30;99.90;;;;;;5027409;28;20427;-59
2021/09/27 00:45:32;;;;;;;38.93;16.17;;;14.30;99.90;;;;;;5027806;28;20505;-59
2021/09/27 00:47:58;;;;;;;35.57;15.83;;;14.30;99.90;;;;;;5007122;28;21123;-58
2021/09/27 00:50:28;;;;;;;30.93;14.57;;;14.30;99.90;;;;;;5023913;28;20935;-59
2021/09/27 00:52:54;;;;;;;35.90;15.67;;;14.30;99.90;;;;;;5028489;28;20430;-58
2021/09/27 00:55:22;;;;;;;28.63;14.90;;;14.30;99.90;;;;;;5028552;28;20454;-59
2021/09/27 00:57:48;;;;;;;22.47;13.50;;;14.30;99.90;;;;;;5025490;28;20496;-57
2021/09/27 01:00:18;;;;;;;29.53;15.40;;;14.30;99.90;;;;;;5014706;28;20426;-58
2021/09/27 01:02:45;;;;;;;36.00;14.17;;;14.30;99.90;;;;;;5022487;28;20427;-58
2021/09/27 01:05:13;;;;;;;42.83;13.40;;;14.30;99.90;;;;;;5003298;28;20464;-58
2021/09/27 01:07:50;;;;;;;25.33;12.73;;;14.30;99.90;;;;;;5017116;28;20756;-60
2021/09/27 01:10:19;;;;;;;24.73;13.03;;;14.30;99.90;;;;;;5011641;28;20986;-58
2021/09/27 01:13:12;;;;;;;29.50;15.00;;;14.30;99.90;;;;;;5025585;28;20963;-57
2021/09/27 01:16:07;;;;;;;31.03;14.80;;;14.20;99.90;;;;;;5027322;28;20545;-58
2021/09/27 01:19:09;;;;;;;29.30;14.70;;;14.20;99.90;;;;;;5026878;28;20962;-58
2021/09/27 01:21:56;;;;;;;32.23;14.90;;;14.20;99.90;;;;;;4981765;28;20414;-58
2021/09/27 01:24:59;;;;;;;71.30;15.80;;;14.20;99.90;;;;;;5024291;28;21052;-59
2021/09/27 01:27:58;;;;;;;49.07;13.57;;;14.20;99.90;;;;;;5023681;28;20930;-59
2021/09/27 01:30:42;;;;;;;103.10;15.80;;;14.20;99.90;;;;;;5026612;28;20430;-58
2021/09/27 01:33:49;;;;;;;37.43;13.80;;;14.10;99.90;;;;;;5022565;28;20430;-58
2021/09/27 01:36:50;;;;;;;49.23;14.63;;;14.10;99.90;;;;;;5021911;28;20911;-58
2021/09/27 01:39:39;;;;;;;28.30;13.73;;;14.10;99.90;;;;;;5010583;28;20794;-59
2021/09/27 01:42:13;;;;;;;50.93;13.57;;;14.00;99.90;;;;;;5019446;28;20410;-58
2021/09/27 01:44:56;;;;;;;32.70;13.20;;;14.10;99.90;;;;;;5031361;28;20458;-58
2021/09/27 01:47:31;;;;;;;37.07;13.10;;;14.00;99.90;;;;;;5026652;28;20457;-59
2021/09/27 01:49:59;;;;;;;36.37;12.97;;;14.00;99.90;;;;;;5031407;28;20958;-59
2021/09/27 01:52:28;;;;;;;59.50;14.97;;;14.00;99.90;;;;;;5032292;28;20509;-59
2021/09/27 01:55:07;;;;;;;37.47;15.03;;;14.00;99.90;;;;;;5032492;28;20444;-60
2021/09/27 01:57:53;;;;;;;40.87;16.10;;;14.00;99.90;;;;;;5030464;28;20457;-58
2021/09/27 02:00:23;;;;;;;37.63;14.60;;;14.00;99.90;;;;;;5015676;28;20422;-60
2021/09/27 02:03:01;;;;;;;48.13;13.13;;;14.00;99.90;;;;;;5027889;28;20414;-59
2021/09/27 02:05:54;;;;;;;59.60;13.27;;;14.00;99.90;;;;;;5026501;28;20473;-59
2021/09/27 02:08:27;;;;;;;51.03;13.80;;;13.90;99.90;;;;;;5029927;28;20446;-59
2021/09/27 02:11:19;;;;;;;86.43;13.90;;;13.90;99.90;;;;;;5028627;28;20923;-58
2021/09/27 02:13:50;;;;;;;68.57;13.20;;;13.80;99.90;;;;;;5028356;28;20406;-59
2021/09/27 02:16:29;;;;;;;38.33;13.90;;;13.80;99.90;;;;;;5031014;28;20393;-58
2021/09/27 02:19:23;;;;;;;69.60;11.50;;;13.80;99.90;;;;;;5028966;28;20414;-58
2021/09/27 02:21:54;;;;;;;37.93;12.03;;;13.80;99.90;;;;;;5025419;28;20434;-59
2021/09/27 02:24:28;;;;;;;24.90;11.17;;;13.80;99.90;;;;;;5016719;28;20463;-59
2021/09/27 02:26:54;;;;;;;27.27;12.37;;;13.70;99.90;;;;;;5020763;28;20426;-58
2021/09/27 02:29:21;;;;;;;43.80;12.70;;;13.70;99.90;;;;;;5012898;28;20419;-59
2021/09/27 02:31:55;;;;;;;35.30;13.00;;;13.70;99.90;;;;;;5031104;28;20431;-58
2021/09/27 02:34:41;;;;;;;27.63;13.57;;;13.70;99.90;;;;;;5031740;28;20467;-59
2021/09/27 02:37:33;;;;;;;30.90;12.80;;;13.70;99.90;;;;;;5013018;28;20990;-59
2021/09/27 02:40:23;;;;;;;20.03;12.10;;;13.70;99.90;;;;;;5029893;28;20437;-58
2021/09/27 02:42:58;;;;;;;31.17;12.97;;;13.70;99.90;;;;;;5030918;28;20454;-58
2021/09/27 02:45:26;;;;;;;48.10;11.70;;;13.70;99.90;;;;;;5028734;28;20476;-58
2021/09/27 02:48:13;;;;;;;27.17;11.50;;;13.70;99.90;;;;;;5031027;28;20453;-58
2021/09/27 02:50:46;;;;;;;33.87;12.43;;;13.70;99.90;;;;;;5026262;28;20415;-59
2021/09/27 02:53:16;;;;;;;32.83;11.60;;;13.70;99.90;;;;;;5034135;28;20421;-59
2021/09/27 02:56:14;;;;;;;44.13;11.13;;;13.70;99.90;;;;;;5030044;28;20438;-59
2021/09/27 02:58:53;;;;;;;105.83;12.13;;;13.60;99.90;;;;;;5026676;28;20923;-59
2021/09/27 03:01:45;;;;;;;78.53;13.30;;;13.60;99.90;;;;;;5012694;28;20415;-59
2021/09/27 03:04:49;;;;;;;24.50;12.03;;;13.60;99.90;;;;;;5028688;28;20473;-59
2021/09/27 03:07:18;;;;;;;73.73;13.60;;;13.60;99.90;;;;;;4985112;28;20438;-60
2021/09/27 03:10:10;;;;;;;22.37;11.73;;;13.60;99.90;;;;;;5043988;28;20405;-59
2021/09/27 03:12:44;;;;;;;26.30;13.03;;;13.50;99.90;;;;;;4990535;28;20438;-59
2021/09/27 03:15:28;;;;;;;27.00;11.23;;;13.60;99.90;;;;;;5025527;28;20991;-58
2021/09/27 03:18:17;;;;;;;26.13;10.53;;;13.50;99.90;;;;;;5027908;28;20504;-57
2021/09/27 03:20:58;;;;;;;47.40;11.00;;;13.50;99.90;;;;;;5030404;28;20399;-58
2021/09/27 03:23:40;;;;;;;17.53;9.17;;;13.50;99.90;;;;;;5029991;28;20557;-59
2021/09/27 03:26:43;;;;;;;54.90;10.80;;;13.50;99.90;;;;;;5029085;28;20466;-60
2021/09/27 03:29:28;;;;;;;28.23;9.70;;;13.40;99.90;;;;;;5003888;28;20426;-59
2021/09/27 03:32:21;;;;;;;28.83;9.23;;;13.40;99.90;;;;;;5014182;28;20778;-59
2021/09/27 03:35:19;;;;;;;16.73;7.33;;;13.30;99.90;;;;;;5028635;28;20449;-59
2021/09/27 03:38:09;;;;;;;12.50;7.60;;;13.30;99.90;;;;;;4979424;28;20506;-59
2021/09/27 03:40:53;;;;;;;64.37;9.10;;;13.30;99.90;;;;;;5021074;28;20433;-58
2021/09/27 03:43:22;;;;;;;16.77;8.03;;;13.30;99.90;;;;;;5032632;28;20430;-59
2021/09/27 03:45:56;;;;;;;23.27;8.60;;;13.20;99.90;;;;;;5029594;28;20451;-58
2021/09/27 03:48:39;;;;;;;33.53;7.17;;;13.20;99.90;;;;;;5028688;28;20461;-59
2021/09/27 03:51:12;;;;;;;20.73;7.30;;;13.20;99.90;;;;;;5027643;28;20505;-59
2021/09/27 03:53:46;;;;;;;8.13;6.23;;;13.10;99.90;;;;;;5030299;28;20398;-59
2021/09/27 03:56:14;;;;;;;18.10;7.10;;;13.10;99.90;;;;;;5028317;28;20521;-58
2021/09/27 03:58:50;;;;;;;10.80;7.80;;;13.10;99.90;;;;;;5016491;28;20438;-61
2021/09/27 04:01:22;;;;;;;12.03;6.83;;;13.10;99.90;;;;;;5026366;28;20431;-59
2021/09/27 04:04:10;;;;;;;10.43;7.80;;;13.10;99.90;;;;;;5031328;28;20449;-58
2021/09/27 04:06:58;;;;;;;13.27;7.00;;;13.00;99.90;;;;;;5020815;28;20442;-59
2021/09/27 04:09:41;;;;;;;15.93;9.30;;;13.10;99.90;;;;;;5026469;28;20438;-59
2021/09/27 04:12:16;;;;;;;10.60;7.40;;;13.00;99.90;;;;;;5026830;28;20453;-59
2021/09/27 04:14:54;;;;;;;12.07;7.83;;;13.10;99.90;;;;;;5027771;28;20456;-57
2021/09/27 04:17:32;;;;;;;31.77;9.03;;;13.10;99.90;;;;;;5025086;28;20477;-57
2021/09/27 04:20:01;;;;;;;14.03;9.03;;;13.10;99.90;;;;;;5028214;28;20407;-57
2021/09/27 04:22:40;;;;;;;24.73;9.17;;;13.10;99.90;;;;;;5019158;28;20416;-57
2021/09/27 04:25:31;;;;;;;33.93;12.37;;;13.10;99.90;;;;;;5025737;28;21036;-57
2021/09/27 04:28:34;;;;;;;37.80;13.40;;;13.10;99.90;;;;;;5027835;28;20923;-58
2021/09/27 04:31:32;;;;;;;30.13;12.87;;;13.10;99.90;;;;;;5025049;28;20429;-58
2021/09/27 04:34:39;;;;;;;54.70;14.50;;;13.10;99.90;;;;;;5026093;28;20425;-58
2021/09/27 04:37:05;;;;;;;29.67;13.97;;;13.20;99.90;;;;;;5002716;28;20431;-58
2021/09/27 04:39:36;;;;;;;31.23;12.60;;;13.20;99.90;;;;;;5024928;28;20458;-58
2021/09/27 04:42:25;;;;;;;36.63;11.70;;;13.10;99.90;;;;;;5033543;28;20410;-58
2021/09/27 04:44:59;;;;;;;34.40;11.40;;;13.20;99.90;;;;;;5024604;28;20484;-59
2021/09/27 04:47:45;;;;;;;42.43;11.00;;;13.20;99.90;;;;;;5025778;28;20602;-57
2021/09/27 04:50:10;;;;;;;57.13;12.00;;;13.10;99.90;;;;;;5021811;28;20426;-58
2021/09/27 04:52:48;;;;;;;31.10;10.50;;;13.10;99.90;;;;;;5025054;28;20430;-58
2021/09/27 04:55:38;;;;;;;42.40;10.93;;;13.10;99.90;;;;;;5021294;28;20596;-58
2021/09/27 04:58:28;;;;;;;23.43;11.70;;;13.10;99.90;;;;;;5027505;28;20480;-58
2021/09/27 05:01:03;;;;;;;35.80;9.97;;;13.00;99.90;;;;;;5020392;28;20554;-59
2021/09/27 05:03:52;;;;;;;47.47;10.90;;;13.00;99.90;;;;;;5026747;28;20820;-58
2021/09/27 05:06:31;;;;;;;29.37;11.10;;;13.00;99.90;;;;;;5012110;28;20470;-59
2021/09/27 05:09:12;;;;;;;20.40;10.30;;;13.00;99.90;;;;;;5023770;28;20434;-58
2021/09/27 05:12:22;;;;;;;46.07;10.10;;;13.00;99.90;;;;;;5022641;28;20504;-59
2021/09/27 05:14:51;;;;;;;37.43;9.77;;;12.90;99.90;;;;;;5026507;28;20446;-58
2021/09/27 05:17:41;;;;;;;25.17;9.40;;;12.90;99.90;;;;;;5030114;28;20477;-58
2021/09/27 05:20:34;;;;;;;40.90;10.00;;;12.90;99.90;;;;;;5026179;28;20447;-58
2021/09/27 05:23:16;;;;;;;20.10;9.37;;;12.90;99.90;;;;;;5021478;28;20422;-58
2021/09/27 05:26:06;;;;;;;20.37;9.33;;;12.80;99.90;;;;;;5034892;28;20462;-58
2021/09/27 05:28:41;;;;;;;33.20;9.97;;;12.90;99.90;;;;;;5026093;28;20768;-58
2021/09/27 05:31:19;;;;;;;25.13;9.90;;;12.90;99.90;;;;;;5028495;28;20400;-58
2021/09/27 05:34:20;;;;;;;75.20;11.03;;;12.90;99.90;;;;;;5029160;28;20432;-59
2021/09/27 05:36:57;;;;;;;22.77;10.40;;;12.90;99.90;;;;;;5004966;28;20484;-59
2021/09/27 05:39:51;;;;;;;26.50;8.70;;;12.90;99.90;;;;;;5027276;28;20439;-58
2021/09/27 05:42:17;;;;;;;37.33;9.10;;;12.80;99.90;;;;;;5025372;28;20843;-58
2021/09/27 05:45:07;;;;;;;18.17;9.23;;;12.80;99.90;;;;;;5025862;28;20519;-58
2021/09/27 05:47:46;;;;;;;40.57;9.23;;;12.80;99.90;;;;;;5027708;28;20168;-58
2021/09/27 05:50:32;;;;;;;16.23;9.23;;;12.80;99.90;;;;;;5028462;28;20942;-59
2021/09/27 05:53:06;;;;;;;24.43;8.73;;;12.80;99.90;;;;;;5023301;28;20459;-57
2021/09/27 05:55:44;;;;;;;53.50;9.67;;;12.80;99.90;;;;;;5028272;28;20416;-58
2021/09/27 05:58:16;;;;;;;32.37;9.27;;;12.80;99.90;;;;;;5020157;28;20802;-58
2021/09/27 06:00:59;;;;;;;38.27;9.47;;;12.80;99.90;;;;;;5035294;28;20621;-58
2021/09/27 06:03:53;;;;;;;44.43;9.07;;;12.70;99.90;;;;;;5028057;28;20759;-58
2021/09/27 06:06:37;;;;;;;56.90;10.13;;;12.70;99.90;;;;;;5028464;28;20461;-60
2021/09/27 06:09:18;;;;;;;45.50;10.20;;;12.70;99.90;;;;;;5026409;28;20445;-58
2021/09/27 06:12:03;;;;;;;57.40;8.50;;;12.70;99.90;;;;;;5018970;28;20429;-59
2021/09/27 06:14:31;;;;;;;49.83;9.10;;;12.60;99.90;;;;;;5027024;28;20448;-58
2021/09/27 06:17:34;;;;;;;81.60;11.03;;;12.60;99.90;;;;;;5016636;28;20443;-58
2021/09/27 06:20:18;;;;;;;139.50;12.10;;;12.60;99.90;;;;;;5009301;28;20444;-58
2021/09/27 06:23:02;;;;;;;34.43;9.60;;;12.60;99.90;;;;;;5027879;28;20488;-58
2021/09/27 06:25:38;;;;;;;15.90;8.90;;;12.60;99.90;;;;;;5027459;28;20577;-59
2021/09/27 06:28:07;;;;;;;23.67;9.00;;;12.60;99.90;;;;;;5030983;28;20422;-57
2021/09/27 06:30:54;;;;;;;45.33;10.20;;;12.70;99.90;;;;;;5030573;28;20838;-58
2021/09/27 06:33:31;;;;;;;43.47;10.20;;;12.70;99.90;;;;;;5032213;28;21135;-59
2021/09/27 06:35:59;;;;;;;28.57;12.03;;;12.70;99.90;;;;;;5026946;28;20768;-58
2021/09/27 06:38:34;;;;;;;28.83;12.50;;;12.80;99.90;;;;;;5030304;28;20415;-58
2021/09/27 06:41:01;;;;;;;57.63;9.90;;;12.80;99.90;;;;;;5030998;28;20409;-58
2021/09/27 06:43:28;;;;;;;43.03;10.33;;;12.80;99.90;;;;;;5026986;28;20427;-59
2021/09/27 06:45:54;;;;;;;26.77;8.97;;;12.90;99.90;;;;;;5011750;28;20455;-58
2021/09/27 06:48:21;;;;;;;44.57;9.33;;;12.80;99.90;;;;;;5030283;28;20414;-58
2021/09/27 06:50:48;;;;;;;63.30;9.87;;;12.80;99.90;;;;;;5028301;28;20789;-58
2021/09/27 06:53:13;;;;;;;27.17;9.07;;;12.80;99.90;;;;;;5030538;28;20433;-58
2021/09/27 06:55:39;;;;;;;24.70;10.30;;;12.80;99.90;;;;;;5030169;28;20454;-58
2021/09/27 06:58:05;;;;;;;26.33;11.60;;;12.80;99.90;;;;;;5022076;28;20183;-59
2021/09/27 07:00:31;;;;;;;27.40;10.33;;;12.80;99.90;;;;;;5016992;28;20568;-59
2021/09/27 07:02:58;;;;;;;22.27;10.13;;;12.80;99.90;;;;;;5029915;28;20188;-59
2021/09/27 07:05:24;;;;;;;27.77;11.80;;;12.90;99.90;;;;;;5030850;28;20446;-58
2021/09/27 07:07:50;;;;;;;31.63;12.70;;;12.90;99.90;;;;;;5028398;28;20431;-58
2021/09/27 07:10:19;;;;;;;26.77;12.97;;;12.90;99.90;;;;;;5024457;28;20171;-59
2021/09/27 07:12:45;;;;;;;22.70;12.23;;;13.00;99.90;;;;;;5030067;28;20203;-59
2021/09/27 07:15:11;;;;;;;34.67;15.20;;;13.10;99.90;;;;;;5020710;28;20877;-58
2021/09/27 07:17:38;;;;;;;25.37;13.17;;;13.10;99.90;;;;;;5013893;28;20679;-58
2021/09/27 07:20:10;;;;;;;24.33;14.00;;;13.20;99.90;;;;;;5028004;28;20429;-59
2021/09/27 07:22:36;;;;;;;26.00;13.53;;;13.20;99.90;;;;;;5029895;28;20423;-58
2021/09/27 07:25:02;;;;;;;34.80;13.90;;;13.30;99.90;;;;;;5027937;28;20468;-59
2021/09/27 07:27:28;;;;;;;45.80;15.43;;;13.40;99.90;;;;;;5029467;28;20222;-59
2021/09/27 07:29:53;;;;;;;28.40;14.43;;;13.50;99.90;;;;;;5030443;28;20815;-58
2021/09/27 07:32:19;;;;;;;30.13;14.80;;;13.50;99.90;;;;;;5029072;28;20523;-59
2021/09/27 07:34:44;;;;;;;29.70;14.13;;;13.50;99.90;;;;;;5030761;28;20227;-59
2021/09/27 07:37:10;;;;;;;26.37;14.00;;;13.60;99.90;;;;;;5030325;28;20228;-58
2021/09/27 07:39:36;;;;;;;33.70;15.80;;;13.60;99.90;;;;;;5011498;28;20180;-59
2021/09/27 07:42:03;;;;;;;30.00;15.37;;;13.60;99.90;;;;;;5028169;28;20285;-58
2021/09/27 07:44:28;;;;;;;30.60;14.87;;;13.70;99.90;;;;;;5029891;28;20321;-58
2021/09/27 07:46:54;;;;;;;28.10;13.40;;;13.70;99.90;;;;;;5028413;28;20557;-58
2021/09/27 07:49:20;;;;;;;36.87;15.23;;;13.80;99.90;;;;;;5023440;28;20549;-58
2021/09/27 07:51:45;;;;;;;26.83;14.83;;;13.80;99.90;;;;;;5029434;28;20631;-58
2021/09/27 07:54:11;;;;;;;28.50;13.30;;;13.80;99.90;;;;;;5029945;28;20178;-59
2021/09/27 07:56:37;;;;;;;29.33;14.97;;;13.90;99.90;;;;;;5029693;28;20844;-59
2021/09/27 07:59:06;;;;;;;28.00;14.60;;;13.90;99.90;;;;;;5012522;28;20179;-59
2021/09/27 08:01:33;;;;;;;28.67;14.53;;;14.00;99.90;;;;;;5029417;28;20184;-59
2021/09/27 08:03:59;;;;;;;33.53;16.50;;;14.10;99.90;;;;;;5029864;28;20501;-59
2021/09/27 08:06:25;;;;;;;32.03;17.70;;;14.30;99.90;;;;;;5029660;28;20454;-58
2021/09/27 08:08:51;;;;;;;32.27;16.47;;;14.40;99.90;;;;;;5022429;28;20893;-58
2021/09/27 08:11:17;;;;;;;33.73;17.67;;;14.40;99.90;;;;;;5029517;28;20164;-58
2021/09/27 08:13:42;;;;;;;32.30;19.30;;;14.50;99.90;;;;;;5027211;28;20175;-59
2021/09/27 08:16:08;;;;;;;31.10;18.60;;;14.60;99.90;;;;;;5030132;28;20235;-58
2021/09/27 08:18:34;;;;;;;33.00;16.43;;;14.60;99.90;;;;;;5028732;28;20179;-58
2021/09/27 08:21:04;;;;;;;30.57;17.63;;;14.70;99.90;;;;;;5029850;28;20419;-58
2021/09/27 08:23:30;;;;;;;30.00;16.30;;;14.80;99.90;;;;;;5029674;28;20175;-59
2021/09/27 08:25:57;;;;;;;35.57;18.57;;;14.90;99.90;;;;;;5028734;28;20458;-58
2021/09/27 08:28:26;;;;;;;30.77;17.00;;;15.00;99.90;;;;;;5016781;28;20522;-60
2021/09/27 08:30:55;;;;;;;28.60;17.10;;;15.00;99.90;;;;;;5022594;28;20945;-58
2021/09/27 08:33:22;;;;;;;26.77;15.07;;;15.10;99.90;;;;;;5007281;28;20435;-59
2021/09/27 08:35:50;;;;;;;26.40;14.50;;;15.10;99.90;;;;;;5027047;28;20446;-59
2021/09/27 08:38:17;;;;;;;22.80;14.60;;;15.10;99.90;;;;;;5024419;28;20406;-58
2021/09/27 08:41:02;;;;;;;27.40;16.77;;;15.20;99.90;;;;;;5028850;28;20402;-58
2021/09/27 08:43:46;;;;;;;32.37;16.70;;;15.30;99.90;;;;;;5027879;28;20425;-59
2021/09/27 08:46:21;;;;;;;27.23;15.87;;;15.40;99.90;;;;;;5028608;28;21040;-59
2021/09/27 08:49:13;;;;;;;26.80;16.20;;;15.60;99.90;;;;;;5029859;28;20424;-59
2021/09/27 08:51:39;;;;;;;33.70;15.50;;;15.70;99.90;;;;;;5020293;28;20590;-58
2021/09/27 08:54:29;;;;;;;41.90;16.57;;;15.90;99.90;;;;;;5023678;28;20419;-59
2021/09/27 08:57:09;;;;;;;34.40;16.63;;;16.00;99.90;;;;;;5021975;28;20481;-59
2021/09/27 08:59:48;;;;;;;36.80;16.07;;;16.10;99.90;;;;;;5026401;28;21230;-58
2021/09/27 09:02:28;;;;;;;39.50;18.87;;;16.30;99.90;;;;;;5027285;28;20533;-59
2021/09/27 09:05:21;;;;;;;39.70;18.80;;;16.40;99.90;;;;;;5028725;28;20552;-59
2021/09/27 09:07:56;;;;;;;33.20;16.97;;;16.60;99.90;;;;;;5027220;28;20427;-58
2021/09/27 09:10:42;;;;;;;32.03;16.17;;;16.80;99.90;;;;;;5017527;28;20413;-58
2021/09/27 09:13:12;;;;;;;34.93;15.50;;;16.90;99.90;;;;;;5019511;28;20416;-59
2021/09/27 09:15:40;;;;;;;15.70;9.20;;;17.10;99.90;;;;;;5018411;28;21088;-59
2021/09/27 09:18:12;;;;;;;10.13;7.00;;;17.30;99.90;;;;;;5030525;28;20437;-58
2021/09/27 09:20:50;;;;;;;7.23;5.83;;;17.40;99.90;;;;;;5030421;28;20852;-59
2021/09/27 09:23:29;;;;;;;7.17;5.70;;;17.50;99.90;;;;;;5028334;28;20426;-59
2021/09/27 09:25:55;;;;;;;7.23;6.03;;;17.60;99.90;;;;;;5020685;28;20454;-59
2021/09/27 09:28:22;;;;;;;7.83;5.83;;;17.80;99.90;;;;;;5028637;28;20402;-59
2021/09/27 09:31:04;;;;;;;10.93;5.80;;;18.00;99.90;;;;;;5027473;28;20530;-60
2021/09/27 09:34:08;;;;;;;7.10;5.90;;;18.10;99.90;;;;;;5029013;28;20427;-59
2021/09/27 09:36:39;;;;;;;9.57;7.47;;;18.20;99.90;;;;;;4955786;28;20408;-59
2021/09/27 09:39:25;;;;;;;9.03;5.73;;;18.30;99.90;;;;;;5026543;28;20468;-59
2021/09/27 09:41:57;;;;;;;8.73;6.40;;;18.30;99.90;;;;;;5010888;28;20573;-59
2021/09/27 09:44:33;;;;;;;8.50;6.83;;;18.30;99.90;;;;;;5029079;28;20958;-58
2021/09/27 09:47:20;;;;;;;10.40;7.50;;;18.30;99.90;;;;;;5028777;28;20438;-59
2021/09/27 09:49:58;;;;;;;8.47;6.50;;;18.40;99.90;;;;;;5027222;28;20430;-59
2021/09/27 09:52:35;;;;;;;8.00;6.47;;;18.40;99.90;;;;;;5028307;28;20410;-59
2021/09/27 09:55:10;;;;;;;8.60;7.30;;;18.40;99.90;;;;;;5028952;28;20426;-59
2021/09/27 09:57:40;;;;;;;10.30;6.67;;;18.30;99.90;;;;;;5028471;28;20790;-59
2021/09/27 10:00:19;;;;;;;9.80;7.33;;;18.20;99.90;;;;;;5026961;28;20430;-59
2021/09/27 10:02:50;;;;;;;9.50;7.47;;;18.20;99.90;;;;;;5027722;28;20465;-59
2021/09/27 10:05:16;;;;;;;10.43;7.50;;;18.30;99.90;;;;;;5029415;28;20446;-59
2021/09/27 10:07:44;;;;;;;12.83;7.40;;;18.40;99.90;;;;;;5023042;28;20929;-59
2021/09/27 10:10:25;;;;;;;9.93;6.87;;;18.50;99.90;;;;;;5031425;28;20179;-59
2021/09/27 10:12:51;;;;;;;10.13;6.63;;;18.70;99.90;;;;;;5031266;28;20433;-59
2021/09/27 10:15:35;;;;;;;9.67;7.20;;;18.90;99.90;;;;;;5030999;28;20434;-57
2021/09/27 10:18:24;;;;;;;9.40;8.30;;;19.00;99.90;;;;;;5021648;28;20430;-60
2021/09/27 10:21:18;;;;;;;9.47;7.67;;;19.00;99.90;;;;;;5031294;28;20414;-58
2021/09/27 10:23:47;;;;;;;9.77;6.97;;;19.10;99.90;;;;;;5013628;28;20406;-59
2021/09/27 10:26:33;;;;;;;8.97;6.87;;;19.20;99.60;;;;;;5030215;28;20497;-58
2021/09/27 10:29:13;;;;;;;10.03;7.20;;;19.30;99.90;;;;;;5023051;28;20398;-58
2021/09/27 10:31:42;;;;;;;9.63;6.53;;;19.50;99.70;;;;;;5016396;28;20421;-59
2021/09/27 10:34:21;;;;;;;10.07;6.33;;;19.70;99.30;;;;;;5030137;28;20540;-59
2021/09/27 10:37:00;;;;;;;9.00;6.70;;;19.90;98.50;;;;;;5028100;28;20430;-58
2021/09/27 10:39:26;;;;;;;7.00;6.30;;;19.90;96.80;;;;;;5029834;28;20434;-59
2021/09/27 10:42:00;;;;;;;6.13;5.50;;;20.10;98.30;;;;;;5029924;28;20953;-59
2021/09/27 10:44:47;;;;;;;7.50;6.00;;;20.30;97.70;;;;;;5028411;28;20217;-60
2021/09/27 10:47:24;;;;;;;5.77;4.90;;;20.50;94.60;;;;;;5014410;28;20430;-59
2021/09/27 10:50:16;;;;;;;7.00;5.47;;;20.60;93.40;;;;;;5030061;28;20418;-59
2021/09/27 10:52:47;;;;;;;7.00;5.70;;;20.70;94.10;;;;;;5025487;28;20419;-58
2021/09/27 10:55:13;;;;;;;7.40;6.10;;;20.50;88.70;;;;;;5030719;28;20550;-59
2021/09/27 10:57:57;;;;;;;8.90;6.00;;;20.30;92.80;;;;;;5028897;28;20506;-58
2021/09/27 11:00:49;;;;;;;5.50;5.00;;;20.20;93.40;;;;;;5024706;28;20186;-57
2021/09/27 11:03:20;;;;;;;11.03;6.40;;;20.30;93.70;;;;;;5024034;28;20477;-56
2021/09/27 11:06:18;;;;;;;6.50;4.97;;;20.30;91.60;;;;;;5023195;28;20477;-57
2021/09/27 11:08:44;;;;;;;7.33;5.10;;;20.40;90.50;;;;;;5027022;28;20477;-56
2021/09/27 11:11:28;;;;;;;5.83;4.87;;;20.50;90.80;;;;;;5026034;28;20517;-56
2021/09/27 11:13:58;;;;;;;6.77;5.67;;;20.60;89.80;;;;;;5004998;28;20184;-56
2021/09/27 11:16:32;;;;;;;6.33;4.93;;;20.80;88.50;;;;;;5026002;28;20437;-57
2021/09/27 11:19:06;;;;;;;7.27;5.73;;;21.10;86.10;;;;;;5025920;28;20454;-57
2021/09/27 11:21:35;;;;;;;8.43;5.00;;;21.30;85.00;;;;;;5031479;28;20471;-57
2021/09/27 11:24:21;;;;;;;12.30;7.20;;;21.40;86.40;;;;;;5018762;28;20861;-58
2021/09/27 11:26:59;;;;;;;10.90;5.70;;;21.60;90.20;;;;;;5028969;28;20524;-57
2021/09/27 11:29:51;;;;;;;9.80;6.37;;;21.60;85.00;;;;;;5027044;28;20483;-57
2021/09/27 11:32:26;;;;;;;8.70;4.93;;;21.40;76.90;;;;;;5026129;28;20480;-58
2021/09/27 11:35:11;;;;;;;5.70;4.80;;;21.10;77.60;;;;;;5027319;28;20632;-58
2021/09/27 11:37:43;;;;;;;6.07;4.97;;;20.90;84.50;;;;;;5028963;28;20418;-57
2021/09/27 11:40:25;;;;;;;7.93;5.90;;;20.70;85.80;;;;;;5026404;28;20445;-57
2021/09/27 11:43:03;;;;;;;9.23;5.50;;;20.50;91.40;;;;;;5016234;28;20454;-58
2021/09/27 11:45:36;;;;;;;6.10;4.43;;;20.30;93.20;;;;;;5009123;28;20450;-58
2021/09/27 11:48:17;;;;;;;6.17;5.33;;;20.20;92.10;;;;;;5016374;28;20414;-57
2021/09/27 11:50:53;;;;;;;9.63;6.97;;;20.10;91.80;;;;;;5022558;28;20533;-57
2021/09/27 11:53:25;;;;;;;9.87;6.73;;;20.50;94.60;;;;;;5027785;28;20419;-58
2021/09/27 11:55:57;;;;;;;10.77;6.67;;;21.00;95.20;;;;;;5025359;28;20446;-58
2021/09/27 11:58:46;;;;;;;9.00;7.00;;;21.30;93.80;;;;;;5027499;28;20417;-58
2021/09/27 12:01:46;;;;;;;7.30;5.90;;;21.60;92.50;;;;;;5023372;28;20560;-58
2021/09/27 12:04:29;;;;;;;8.30;6.53;;;21.70;90.50;;;;;;5026196;28;20477;-60
2021/09/27 12:06:58;;;;;;;11.90;6.80;;;21.80;89.20;;;;;;5024083;28;20892;-59
2021/09/27 12:10:13;;;;;;;8.33;6.17;;;22.00;82.70;;;;;;5023449;28;20964;-58
2021/09/27 12:12:43;;;;;;;8.47;5.40;;;22.20;85.50;;;;;;5008348;28;20470;-58
2021/09/27 12:15:09;;;;;;;6.93;5.60;;;22.10;78.80;;;;;;5025957;28;20451;-57
2021/09/27 12:17:42;;;;;;;8.47;5.70;;;22.20;78.40;;;;;;5025984;28;20430;-59
2021/09/27 12:20:13;;;;;;;7.23;6.00;;;22.30;76.30;;;;;;5027064;28;20485;-58
2021/09/27 12:23:01;;;;;;;10.57;6.20;;;22.50;75.30;;;;;;5026173;28;20418;-58
2021/09/27 12:25:39;;;;;;;6.97;6.27;;;22.70;73.00;;;;;;5022635;28;21022;-59
2021/09/27 12:28:26;;;;;;;9.03;6.10;;;22.90;75.00;;;;;;5020013;28;20484;-57
2021/09/27 12:30:58;;;;;;;7.20;6.30;;;22.80;74.40;;;;;;5025028;28;20973;-58
2021/09/27 12:33:27;;;;;;;8.23;6.27;;;22.80;68.90;;;;;;5027779;28;20468;-58
2021/09/27 12:36:19;;;;;;;11.10;7.13;;;22.80;74.40;;;;;;5006533;28;21097;-58
2021/09/27 12:38:47;;;;;;;8.03;6.20;;;22.90;77.90;;;;;;5027317;28;20409;-59
2021/09/27 12:41:13;;;;;;;6.93;5.60;;;22.90;73.60;;;;;;5024298;28;20426;-59
2021/09/27 12:43:39;;;;;;;7.17;6.00;;;22.70;68.30;;;;;;5025773;28;20867;-58
2021/09/27 12:46:17;;;;;;;8.40;6.23;;;22.50;68.20;;;;;;5024702;28;20896;-57
2021/09/27 12:48:46;;;;;;;6.80;5.80;;;22.20;69.90;;;;;;5026730;28;20176;-58
2021/09/27 12:51:17;;;;;;;6.40;5.23;;;21.90;71.70;;;;;;5027985;28;20410;-58
2021/09/27 12:54:04;;;;;;;8.23;6.90;;;21.80;75.70;;;;;;5027375;28;20423;-58
2021/09/27 12:56:31;;;;;;;7.97;6.00;;;21.60;80.10;;;;;;5020764;28;20422;-58
2021/09/27 12:59:12;;;;;;;6.93;5.73;;;21.50;85.70;;;;;;5023399;28;20794;-60
2021/09/27 13:01:44;;;;;;;9.13;6.10;;;21.40;85.90;;;;;;5023743;28;21001;-57
2021/09/27 13:04:33;;;;;;;8.00;6.77;;;21.30;85.90;;;;;;5036275;28;20433;-57
2021/09/27 13:07:07;;;;;;;7.47;6.37;;;21.30;87.40;;;;;;5012943;28;20426;-59
2021/09/27 13:09:55;;;;;;;7.57;6.17;;;21.10;90.00;;;;;;5020668;28;20426;-59
2021/09/27 13:12:37;;;;;;;9.10;7.20;;;21.00;90.30;;;;;;5027176;28;20472;-57
2021/09/27 13:15:22;;;;;;;10.47;7.50;;;20.80;91.60;;;;;;5025200;28;20480;-58
2021/09/27 13:18:00;;;;;;;10.70;7.03;;;20.60;92.30;;;;;;5023475;28;20890;-58
2021/09/27 13:20:34;;;;;;;11.70;7.50;;;20.40;93.80;;;;;;5038435;28;20440;-58
2021/09/27 13:23:03;;;;;;;9.30;7.03;;;20.30;94.20;;;;;;5027895;28;20406;-59